Aviation Digital Data Service (ADDS)

Output produced by METARs form (0236 UTC 18 June 2019)
found at http://www.aviationweather.gov/metar/data/
 
METAR text: KSWF 180145Z 00000KT 10SM BKN050 22/19 A2999
Conditions at: KSWF (NEWBURGH/STEWART, NY, US) observed 0145 UTC 18 June 2019
Temperature: 22.0°C (72°F)
Dewpoint: 19.0°C (66°F) [RH = 83%]
Pressure (altimeter): 29.99 inches Hg (1015.7 mb)
Winds: calm
Visibility: 10 or more miles (16+ km)
Ceiling: 5000 feet AGL
Clouds: broken clouds at 5000 feet AGL
Weather: no significant weather observed at this time

METAR text: KSWF 180045Z 00000KT 10SM BKN080 22/19 A2999
Conditions at: KSWF (NEWBURGH/STEWART, NY, US) observed 0045 UTC 18 June 2019
Temperature: 22.0°C (72°F)
Dewpoint: 19.0°C (66°F) [RH = 83%]
Pressure (altimeter): 29.99 inches Hg (1015.7 mb)
Winds: calm
Visibility: 10 or more miles (16+ km)
Ceiling: 8000 feet AGL
Clouds: broken clouds at 8000 feet AGL
Weather: no significant weather observed at this time

METAR text: KSWF 172345Z 00000KT 20SM BKN080 23/19 A2998
Conditions at: KSWF (NEWBURGH/STEWART, NY, US) observed 2345 UTC 17 June 2019
Temperature: 23.0°C (73°F)
Dewpoint: 19.0°C (66°F) [RH = 78%]
Pressure (altimeter): 29.98 inches Hg (1015.3 mb)
Winds: calm
Visibility: 20 miles (32 km)
Ceiling: 8000 feet AGL
Clouds: broken clouds at 8000 feet AGL
Weather: no significant weather observed at this time

METAR text: KSWF 172245Z 26005KT 20SM SCT020 BKN080 23/19 A2998
Conditions at: KSWF (NEWBURGH/STEWART, NY, US) observed 2245 UTC 17 June 2019
Temperature: 23.0°C (73°F)
Dewpoint: 19.0°C (66°F) [RH = 78%]
Pressure (altimeter): 29.98 inches Hg (1015.3 mb)
Winds: from the W (260 degrees) at 6 MPH (5 knots; 2.6 m/s)
Visibility: 20 miles (32 km)
Ceiling: 8000 feet AGL
Clouds: scattered clouds at 2000 feet AGL
broken clouds at 8000 feet AGL
Weather: no significant weather observed at this time

METAR text: KSWF 172145Z 28005KT 20SM SCT020 BKN080 23/19 A2999
Conditions at: KSWF (NEWBURGH/STEWART, NY, US) observed 2145 UTC 17 June 2019
Temperature: 23.0°C (73°F)
Dewpoint: 19.0°C (66°F) [RH = 78%]
Pressure (altimeter): 29.99 inches Hg (1015.7 mb)
Winds: from the W (280 degrees) at 6 MPH (5 knots; 2.6 m/s)
Visibility: 20 miles (32 km)
Ceiling: 8000 feet AGL
Clouds: scattered clouds at 2000 feet AGL
broken clouds at 8000 feet AGL
Weather: no significant weather observed at this time

METAR text: KSWF 172045Z 00000KT 20SM SCT020 BKN050 23/19 A3000
Conditions at: KSWF (NEWBURGH/STEWART, NY, US) observed 2045 UTC 17 June 2019
Temperature: 23.0°C (73°F)
Dewpoint: 19.0°C (66°F) [RH = 78%]
Pressure (altimeter): 30.00 inches Hg (1016.0 mb)
Winds: calm
Visibility: 20 miles (32 km)
Ceiling: 5000 feet AGL
Clouds: scattered clouds at 2000 feet AGL
broken clouds at 5000 feet AGL
Weather: no significant weather observed at this time

METAR text: KSWF 171945Z 00000KT 20SM SCT020 BKN050 22/18 A3001
Conditions at: KSWF (NEWBURGH/STEWART, NY, US) observed 1945 UTC 17 June 2019
Temperature: 22.0°C (72°F)
Dewpoint: 18.0°C (64°F) [RH = 78%]
Pressure (altimeter): 30.01 inches Hg (1016.3 mb)
Winds: calm
Visibility: 20 miles (32 km)
Ceiling: 5000 feet AGL
Clouds: scattered clouds at 2000 feet AGL
broken clouds at 5000 feet AGL
Weather: no significant weather observed at this time

METAR text: KSWF 171845Z 00000KT 20SM BKN037 BKN080 23/18 A3002
Conditions at: KSWF (NEWBURGH/STEWART, NY, US) observed 1845 UTC 17 June 2019
Temperature: 23.0°C (73°F)
Dewpoint: 18.0°C (64°F) [RH = 73%]
Pressure (altimeter): 30.02 inches Hg (1016.7 mb)
Winds: calm
Visibility: 20 miles (32 km)
Ceiling: 3700 feet AGL
Clouds: broken clouds at 3700 feet AGL
broken clouds at 8000 feet AGL
Weather: no significant weather observed at this time

METAR text: KSWF 171745Z 00000KT 20SM BKN030 BKN060 22/17 A3001
Conditions at: KSWF (NEWBURGH/STEWART, NY, US) observed 1745 UTC 17 June 2019
Temperature: 22.0°C (72°F)
Dewpoint: 17.0°C (63°F) [RH = 73%]
Pressure (altimeter): 30.01 inches Hg (1016.3 mb)
Winds: calm
Visibility: 20 miles (32 km)
Ceiling: 3000 feet AGL
Clouds: broken clouds at 3000 feet AGL
broken clouds at 6000 feet AGL
Weather: no significant weather observed at this time

METAR text: KSWF 171645Z 00000KT 20SM SCT025 BKN040 22/16 A3002
Conditions at: KSWF (NEWBURGH/STEWART, NY, US) observed 1645 UTC 17 June 2019
Temperature: 22.0°C (72°F)
Dewpoint: 16.0°C (61°F) [RH = 69%]
Pressure (altimeter): 30.02 inches Hg (1016.7 mb)
Winds: calm
Visibility: 20 miles (32 km)
Ceiling: 4000 feet AGL
Clouds: scattered clouds at 2500 feet AGL
broken clouds at 4000 feet AGL
Weather: no significant weather observed at this time

METAR text: KSWF 171545Z 00000KT 20SM SCT025 BKN040 23/17 A2999
Conditions at: KSWF (NEWBURGH/STEWART, NY, US) observed 1545 UTC 17 June 2019
Temperature: 23.0°C (73°F)
Dewpoint: 17.0°C (63°F) [RH = 69%]
Pressure (altimeter): 29.99 inches Hg (1015.7 mb)
Winds: calm
Visibility: 20 miles (32 km)
Ceiling: 4000 feet AGL
Clouds: scattered clouds at 2500 feet AGL
broken clouds at 4000 feet AGL
Weather: no significant weather observed at this time

METAR text: KSWF 171445Z 00000KT 20SM BKN025 BKN040 20/16 A3001
Conditions at: KSWF (NEWBURGH/STEWART, NY, US) observed 1445 UTC 17 June 2019
Temperature: 20.0°C (68°F)
Dewpoint: 16.0°C (61°F) [RH = 78%]
Pressure (altimeter): 30.01 inches Hg (1016.3 mb)
Winds: calm
Visibility: 20 miles (32 km)
Ceiling: 2500 feet AGL
Clouds: broken clouds at 2500 feet AGL
broken clouds at 4000 feet AGL
Weather: no significant weather observed at this time

METAR text: KSWF 171345Z 27005KT 20SM BKN025 19/16 A3001
Conditions at: KSWF (NEWBURGH/STEWART, NY, US) observed 1345 UTC 17 June 2019
Temperature: 19.0°C (66°F)
Dewpoint: 16.0°C (61°F) [RH = 83%]
Pressure (altimeter): 30.01 inches Hg (1016.3 mb)
Winds: from the W (270 degrees) at 6 MPH (5 knots; 2.6 m/s)
Visibility: 20 miles (32 km)
Ceiling: 2500 feet AGL
Clouds: broken clouds at 2500 feet AGL
Weather: no significant weather observed at this time

METAR text: KSWF 171245Z VRB05KT 20SM BKN025 19/16 A2997
Conditions at: KSWF (NEWBURGH/STEWART, NY, US) observed 1245 UTC 17 June 2019
Temperature: 19.0°C (66°F)
Dewpoint: 16.0°C (61°F) [RH = 83%]
Pressure (altimeter): 29.97 inches Hg (1015.0 mb)
Winds: variable direction winds at 6 MPH (5 knots; 2.6 m/s)
Visibility: 20 miles (32 km)
Ceiling: 2500 feet AGL
Clouds: broken clouds at 2500 feet AGL
Weather: no significant weather observed at this time

METAR text: KSWF 171145Z VRB05KT 15SM SCT030 BKN040 18/16 A2997
Conditions at: KSWF (NEWBURGH/STEWART, NY, US) observed 1145 UTC 17 June 2019
Temperature: 18.0°C (64°F)
Dewpoint: 16.0°C (61°F) [RH = 88%]
Pressure (altimeter): 29.97 inches Hg (1015.0 mb)
Winds: variable direction winds at 6 MPH (5 knots; 2.6 m/s)
Visibility: 15 miles (24 km)
Ceiling: 4000 feet AGL
Clouds: scattered clouds at 3000 feet AGL
broken clouds at 4000 feet AGL
Weather: no significant weather observed at this time

METAR text: KSWF 171045Z VRB05KT 10SM SCT017 OVC030 17/17 A2997
Conditions at: KSWF (NEWBURGH/STEWART, NY, US) observed 1045 UTC 17 June 2019
Temperature: 17.0°C (63°F)
Dewpoint: 17.0°C (63°F) [RH = 100%]
Pressure (altimeter): 29.97 inches Hg (1015.0 mb)
Winds: variable direction winds at 6 MPH (5 knots; 2.6 m/s)
Visibility: 10 or more miles (16+ km)
Ceiling: 3000 feet AGL
Clouds: scattered clouds at 1700 feet AGL
overcast cloud deck at 3000 feet AGL
Weather: no significant weather observed at this time

METAR text: KSWF 170945Z VRB05KT 6SM BR OVC008 17/17 A2994
Conditions at: KSWF (NEWBURGH/STEWART, NY, US) observed 0945 UTC 17 June 2019
Temperature: 17.0°C (63°F)
Dewpoint: 17.0°C (63°F) [RH = 100%]
Pressure (altimeter): 29.94 inches Hg (1014.0 mb)
Winds: variable direction winds at 6 MPH (5 knots; 2.6 m/s)
Visibility: 6 miles (10 km)
Ceiling: 800 feet AGL
Clouds: overcast cloud deck at 800 feet AGL
Weather: BR  (mist)

METAR text: KSWF 170845Z 00000KT 2SM BR OVC015 18/18 A2992
Conditions at: KSWF (NEWBURGH/STEWART, NY, US) observed 0845 UTC 17 June 2019
Temperature: 18.0°C (64°F)
Dewpoint: 18.0°C (64°F) [RH = 100%]
Pressure (altimeter): 29.92 inches Hg (1013.3 mb)
Winds: calm
Visibility: 2.00 miles (3.22 km)
Ceiling: 1500 feet AGL
Clouds: overcast cloud deck at 1500 feet AGL
Weather: BR  (mist)

METAR text: KSWF 170745Z 00000KT 1 1/2SM BR OVC015 18/18 A2989
Conditions at: KSWF (NEWBURGH/STEWART, NY, US) observed 0745 UTC 17 June 2019
Temperature: 18.0°C (64°F)
Dewpoint: 18.0°C (64°F) [RH = 100%]
Pressure (altimeter): 29.89 inches Hg (1012.3 mb)
Winds: calm
Visibility: 1.50 miles (2.41 km)
Ceiling: 1500 feet AGL
Clouds: overcast cloud deck at 1500 feet AGL
Weather: BR  (mist)

METAR text: KSWF 170645Z 00000KT 2 1/2SM BR OVC050 18/18 A2989
Conditions at: KSWF (NEWBURGH/STEWART, NY, US) observed 0645 UTC 17 June 2019
Temperature: 18.0°C (64°F)
Dewpoint: 18.0°C (64°F) [RH = 100%]
Pressure (altimeter): 29.89 inches Hg (1012.3 mb)
Winds: calm
Visibility: 2.50 miles (4.02 km)
Ceiling: 5000 feet AGL
Clouds: overcast cloud deck at 5000 feet AGL
Weather: BR  (mist)

METAR text: KSWF 170545Z 00000KT 1SM BR OVC015 18/18 A2988 RMK R27/4000FT
Conditions at: KSWF (NEWBURGH/STEWART, NY, US) observed 0545 UTC 17 June 2019
Temperature: 18.0°C (64°F)
Dewpoint: 18.0°C (64°F) [RH = 100%]
Pressure (altimeter): 29.88 inches Hg (1011.9 mb)
Winds: calm
Visibility: 1.00 miles (1.61 km)
Ceiling: 1500 feet AGL
Clouds: overcast cloud deck at 1500 feet AGL
Weather: BR  (mist)

METAR text: KSWF 170530Z 00000KT 1 1/2SM BR OVC020 18/18 A2988
Conditions at: KSWF (NEWBURGH/STEWART, NY, US) observed 0530 UTC 17 June 2019
Temperature: 18.0°C (64°F)
Dewpoint: 18.0°C (64°F) [RH = 100%]
Pressure (altimeter): 29.88 inches Hg (1011.9 mb)
Winds: calm
Visibility: 1.50 miles (2.41 km)
Ceiling: 2000 feet AGL
Clouds: overcast cloud deck at 2000 feet AGL
Weather: BR  (mist)

METAR text: KSWF 170500Z 00000KT 3SM BR BKN050 18/18 A2987
Conditions at: KSWF (NEWBURGH/STEWART, NY, US) observed 0500 UTC 17 June 2019
Temperature: 18.0°C (64°F)
Dewpoint: 18.0°C (64°F) [RH = 100%]
Pressure (altimeter): 29.87 inches Hg (1011.6 mb)
Winds: calm
Visibility: 3 miles ( 5 km)
Ceiling: 5000 feet AGL
Clouds: broken clouds at 5000 feet AGL
Weather: BR  (mist)

METAR text: KSWF 170445Z 28003KT 08SM BKN050 19/19 A2986
Conditions at: KSWF (NEWBURGH/STEWART, NY, US) observed 0445 UTC 17 June 2019
Temperature: 19.0°C (66°F)
Dewpoint: 19.0°C (66°F) [RH = 100%]
Pressure (altimeter): 29.86 inches Hg (1011.3 mb)
Winds: from the W (280 degrees) at 3 MPH (3 knots; 1.5 m/s)
Visibility: 8 miles (13 km)
Ceiling: 5000 feet AGL
Clouds: broken clouds at 5000 feet AGL
Weather: no significant weather observed at this time

METAR text: KSWF 170345Z 28003KT 10SM OVC050 19/19 A2986
Conditions at: KSWF (NEWBURGH/STEWART, NY, US) observed 0345 UTC 17 June 2019
Temperature: 19.0°C (66°F)
Dewpoint: 19.0°C (66°F) [RH = 100%]
Pressure (altimeter): 29.86 inches Hg (1011.3 mb)
Winds: from the W (280 degrees) at 3 MPH (3 knots; 1.5 m/s)
Visibility: 10 or more miles (16+ km)
Ceiling: 5000 feet AGL
Clouds: overcast cloud deck at 5000 feet AGL
Weather: no significant weather observed at this time

METAR text: KSWF 170245Z 28003KT 10SM OVC050 19/19 A2985
Conditions at: KSWF (NEWBURGH/STEWART, NY, US) observed 0245 UTC 17 June 2019
Temperature: 19.0°C (66°F)
Dewpoint: 19.0°C (66°F) [RH = 100%]
Pressure (altimeter): 29.85 inches Hg (1010.9 mb)
Winds: from the W (280 degrees) at 3 MPH (3 knots; 1.5 m/s)
Visibility: 10 or more miles (16+ km)
Ceiling: 5000 feet AGL
Clouds: overcast cloud deck at 5000 feet AGL
Weather: no significant weather observed at this time

METAR text: KSWF 170145Z 00000KT 10SM OVC050 20/20 A2984
Conditions at: KSWF (NEWBURGH/STEWART, NY, US) observed 0145 UTC 17 June 2019
Temperature: 20.0°C (68°F)
Dewpoint: 20.0°C (68°F) [RH = 100%]
Pressure (altimeter): 29.84 inches Hg (1010.6 mb)
Winds: calm
Visibility: 10 or more miles (16+ km)
Ceiling: 5000 feet AGL
Clouds: overcast cloud deck at 5000 feet AGL
Weather: no significant weather observed at this time

METAR text: KSWF 170045Z 00000KT 10SM BKN040 BKN080 21/21 A2982
Conditions at: KSWF (NEWBURGH/STEWART, NY, US) observed 0045 UTC 17 June 2019
Temperature: 21.0°C (70°F)
Dewpoint: 21.0°C (70°F) [RH = 100%]
Pressure (altimeter): 29.82 inches Hg (1009.9 mb)
Winds: calm
Visibility: 10 or more miles (16+ km)
Ceiling: 4000 feet AGL
Clouds: broken clouds at 4000 feet AGL
broken clouds at 8000 feet AGL
Weather: no significant weather observed at this time

METAR text: KSWF 162345Z 00000KT 10SM SCT030 OVC040 21/21 A2983
Conditions at: KSWF (NEWBURGH/STEWART, NY, US) observed 2345 UTC 16 June 2019
Temperature: 21.0°C (70°F)
Dewpoint: 21.0°C (70°F) [RH = 100%]
Pressure (altimeter): 29.83 inches Hg (1010.2 mb)
Winds: calm
Visibility: 10 or more miles (16+ km)
Ceiling: 4000 feet AGL
Clouds: scattered clouds at 3000 feet AGL
overcast cloud deck at 4000 feet AGL
Weather: no significant weather observed at this time

METAR text: KSWF 162245Z 29006KT 10SM SCT030 OVC040 21/21 A2982
Conditions at: KSWF (NEWBURGH/STEWART, NY, US) observed 2245 UTC 16 June 2019
Temperature: 21.0°C (70°F)
Dewpoint: 21.0°C (70°F) [RH = 100%]
Pressure (altimeter): 29.82 inches Hg (1009.9 mb)
Winds: from the WNW (290 degrees) at 7 MPH (6 knots; 3.1 m/s)
Visibility: 10 or more miles (16+ km)
Ceiling: 4000 feet AGL
Clouds: scattered clouds at 3000 feet AGL
overcast cloud deck at 4000 feet AGL
Weather: no significant weather observed at this time

METAR text: KSWF 162145Z 00000KT 6SM BR BKN034 OVC050 21/21 A2981
Conditions at: KSWF (NEWBURGH/STEWART, NY, US) observed 2145 UTC 16 June 2019
Temperature: 21.0°C (70°F)
Dewpoint: 21.0°C (70°F) [RH = 100%]
Pressure (altimeter): 29.81 inches Hg (1009.6 mb)
Winds: calm
Visibility: 6 miles (10 km)
Ceiling: 3400 feet AGL
Clouds: broken clouds at 3400 feet AGL
overcast cloud deck at 5000 feet AGL
Weather: BR  (mist)

METAR text: KSWF 162045Z 00000KT 5SM BR FEW010 BKN020 OVC040 21/21 A2981
Conditions at: KSWF (NEWBURGH/STEWART, NY, US) observed 2045 UTC 16 June 2019
Temperature: 21.0°C (70°F)
Dewpoint: 21.0°C (70°F) [RH = 100%]
Pressure (altimeter): 29.81 inches Hg (1009.6 mb)
Winds: calm
Visibility: 5 miles ( 8 km)
Ceiling: 2000 feet AGL
Clouds: few clouds at 1000 feet AGL
broken clouds at 2000 feet AGL
overcast cloud deck at 4000 feet AGL
Weather: BR  (mist)

METAR text: KSWF 162005Z 00000KT 5SM BR BKN025 OVC060 21/21 A2982
Conditions at: KSWF (NEWBURGH/STEWART, NY, US) observed 2005 UTC 16 June 2019
Temperature: 21.0°C (70°F)
Dewpoint: 21.0°C (70°F) [RH = 100%]
Pressure (altimeter): 29.82 inches Hg (1009.9 mb)
Winds: calm
Visibility: 5 miles ( 8 km)
Ceiling: 2500 feet AGL
Clouds: broken clouds at 2500 feet AGL
overcast cloud deck at 6000 feet AGL
Weather: BR  (mist)

METAR text: KSWF 161945Z 22004KT 2SM BR BKN025 OVC050 21/20 A2982
Conditions at: KSWF (NEWBURGH/STEWART, NY, US) observed 1945 UTC 16 June 2019
Temperature: 21.0°C (70°F)
Dewpoint: 20.0°C (68°F) [RH = 94%]
Pressure (altimeter): 29.82 inches Hg (1009.9 mb)
Winds: from the SW (220 degrees) at 5 MPH (4 knots; 2.1 m/s)
Visibility: 2.00 miles (3.22 km)
Ceiling: 2500 feet AGL
Clouds: broken clouds at 2500 feet AGL
overcast cloud deck at 5000 feet AGL
Weather: BR  (mist)

METAR text: KSWF 161920Z 24004KT 2SM BR BKN025 OVC050 21/20 A2982
Conditions at: KSWF (NEWBURGH/STEWART, NY, US) observed 1920 UTC 16 June 2019
Temperature: 21.0°C (70°F)
Dewpoint: 20.0°C (68°F) [RH = 94%]
Pressure (altimeter): 29.82 inches Hg (1009.9 mb)
Winds: from the WSW (240 degrees) at 5 MPH (4 knots; 2.1 m/s)
Visibility: 2.00 miles (3.22 km)
Ceiling: 2500 feet AGL
Clouds: broken clouds at 2500 feet AGL
overcast cloud deck at 5000 feet AGL
Weather: BR  (mist)

METAR text: KSWF 161910Z 25004KT 5SM BR BKN030 OVC060 22/20 A2982
Conditions at: KSWF (NEWBURGH/STEWART, NY, US) observed 1910 UTC 16 June 2019
Temperature: 22.0°C (72°F)
Dewpoint: 20.0°C (68°F) [RH = 88%]
Pressure (altimeter): 29.82 inches Hg (1009.9 mb)
Winds: from the WSW (250 degrees) at 5 MPH (4 knots; 2.1 m/s)
Visibility: 5 miles ( 8 km)
Ceiling: 3000 feet AGL
Clouds: broken clouds at 3000 feet AGL
overcast cloud deck at 6000 feet AGL
Weather: BR  (mist)

METAR text: KSWF 161845Z 22005KT 10SM BKN060 BKN080 22/20 A2982
Conditions at: KSWF (NEWBURGH/STEWART, NY, US) observed 1845 UTC 16 June 2019
Temperature: 22.0°C (72°F)
Dewpoint: 20.0°C (68°F) [RH = 88%]
Pressure (altimeter): 29.82 inches Hg (1009.9 mb)
Winds: from the SW (220 degrees) at 6 MPH (5 knots; 2.6 m/s)
Visibility: 10 or more miles (16+ km)
Ceiling: 6000 feet AGL
Clouds: broken clouds at 6000 feet AGL
broken clouds at 8000 feet AGL
Weather: no significant weather observed at this time

METAR text: KSWF 161745Z 00000KT 10SM BKN060 BKN080 21/19 A2985
Conditions at: KSWF (NEWBURGH/STEWART, NY, US) observed 1745 UTC 16 June 2019
Temperature: 21.0°C (70°F)
Dewpoint: 19.0°C (66°F) [RH = 88%]
Pressure (altimeter): 29.85 inches Hg (1010.9 mb)
Winds: calm
Visibility: 10 or more miles (16+ km)
Ceiling: 6000 feet AGL
Clouds: broken clouds at 6000 feet AGL
broken clouds at 8000 feet AGL
Weather: no significant weather observed at this time

METAR text: KSWF 161645Z 00000KT 10SM -DZ BKN060 OVC080 21/19 A2986
Conditions at: KSWF (NEWBURGH/STEWART, NY, US) observed 1645 UTC 16 June 2019
Temperature: 21.0°C (70°F)
Dewpoint: 19.0°C (66°F) [RH = 88%]
Pressure (altimeter): 29.86 inches Hg (1011.3 mb)
Winds: calm
Visibility: 10 or more miles (16+ km)
Ceiling: 6000 feet AGL
Clouds: broken clouds at 6000 feet AGL
overcast cloud deck at 8000 feet AGL
Weather: -DZ  (light drizzle)

METAR text: KSWF 161545Z VRB04KT 15SM BKN070 BKN100 21/19 A2987
Conditions at: KSWF (NEWBURGH/STEWART, NY, US) observed 1545 UTC 16 June 2019
Temperature: 21.0°C (70°F)
Dewpoint: 19.0°C (66°F) [RH = 88%]
Pressure (altimeter): 29.87 inches Hg (1011.6 mb)
Winds: variable direction winds at 5 MPH (4 knots; 2.1 m/s)
Visibility: 15 miles (24 km)
Ceiling: 7000 feet AGL
Clouds: broken clouds at 7000 feet AGL
broken clouds at 10000 feet AGL
Weather: no significant weather observed at this time

METAR text: KSWF 161445Z 22004KT 10SM OVC070 21/18 A2988
Conditions at: KSWF (NEWBURGH/STEWART, NY, US) observed 1445 UTC 16 June 2019
Temperature: 21.0°C (70°F)
Dewpoint: 18.0°C (64°F) [RH = 83%]
Pressure (altimeter): 29.88 inches Hg (1011.9 mb)
Winds: from the SW (220 degrees) at 5 MPH (4 knots; 2.1 m/s)
Visibility: 10 or more miles (16+ km)
Ceiling: 7000 feet AGL
Clouds: overcast cloud deck at 7000 feet AGL
Weather: no significant weather observed at this time

Forecast for: KSWF (NEWBURGH/STEWART, NY, US)
Text: KSWF 172348Z 1800/1906 VRB02KT P6SM SCT020 BKN080
Forecast period: 0000 to 0900 UTC 18 June 2019
Forecast type: FROM: standard forecast or significant change
Winds: variable direction winds at 2 MPH (2 knots; 1.0 m/s)
Visibility: 6 or more miles 10+ km)
Ceiling: 8000 feet AGL
Clouds: scattered clouds at 2000 feet AGL
broken clouds at 8000 feet AGL
Weather: no significant weather forecast for this period
Text: TEMPO 1805/1809 5SM BR BKN020
Forecast period: 0500 to 0900 UTC 18 June 2019
Forecast type: TEMPORARY: The following changes expected for less than half the time period
Visibility: 5 miles (8 km)
Ceiling: 2000 feet AGL
Clouds: broken clouds at 2000 feet AGL
Weather: BR  (mist)
Text: FM180900 00000KT 3SM BR OVC015
Forecast period: 0900 to 1400 UTC 18 June 2019
Forecast type: FROM: standard forecast or significant change
Winds: calm
Visibility: 3 miles (5 km)
Ceiling: 1500 feet AGL
Clouds: overcast cloud deck at 1500 feet AGL
Weather: BR  (mist)
Text: TEMPO 1810/1814 2SM -SHRA BR BKN009
Forecast period: 1000 to 1400 UTC 18 June 2019
Forecast type: TEMPORARY: The following changes expected for less than half the time period
Visibility: 2.00 miles (3.22 km)
Ceiling: 900 feet AGL
Clouds: broken clouds at 900 feet AGL
Weather: -SHRA BR  (light rain showers, mist)
Text: FM181400 VRB05KT 4SM -SHRA BR BKN010 OVC020
Forecast period: 1400 to 2100 UTC 18 June 2019
Forecast type: FROM: standard forecast or significant change
Winds: variable direction winds at 6 MPH (5 knots; 2.6 m/s)
Visibility: 4 miles (6 km)
Ceiling: 1000 feet AGL
Clouds: broken clouds at 1000 feet AGL
overcast cloud deck at 2000 feet AGL
Weather: -SHRA BR  (light rain showers, mist)
Text: FM182100 VRB05KT P6SM SCT020 BKN035
Forecast period: 2100 UTC 18 June 2019 to 0100 UTC 19 June 2019
Forecast type: FROM: standard forecast or significant change
Winds: variable direction winds at 6 MPH (5 knots; 2.6 m/s)
Visibility: 6 or more miles 10+ km)
Ceiling: 3500 feet AGL
Clouds: scattered clouds at 2000 feet AGL
broken clouds at 3500 feet AGL
Weather: no significant weather forecast for this period
Text: FM190100 VRB02KT P6SM OVC020 AMD NOT SKED
Forecast period: 0100 to 0600 UTC 19 June 2019
Forecast type: FROM: standard forecast or significant change
Winds: variable direction winds at 2 MPH (2 knots; 1.0 m/s)
Visibility: 6 or more miles 10+ km)
Ceiling: 2000 feet AGL
Clouds: overcast cloud deck at 2000 feet AGL
Weather: no significant weather forecast for this period